Time;durP1;ratioP1;P1;durP2;ratioP2;P2;SDS_P1;SDS_P2;PMS_P1;PMS_P2;Temp;Humidity;BMP_temperature;BMP_pressure;BME280_temperature;BME280_humidity;BME280_pressure;Samples;Min_cycle;Max_cycle;Signal;HPM_P1;HPM_P2
2022/01/18 00:00:19;;;;;;;;;;;3.00;99.90;;;;;;4990450;28;19947;-75
2022/01/18 00:02:45;;;;;;;;;;;3.00;99.90;;;;;;4991262;28;20455;-75
2022/01/18 00:05:18;;;;;;;;;;;2.90;99.90;;;;;;4994065;28;19926;-73
2022/01/18 00:07:49;;;;;;;;;;;2.90;99.90;;;;;;4972268;28;19952;-74
2022/01/18 00:10:17;;;;;;;;;;;2.90;99.90;;;;;;5003802;28;20273;-75
2022/01/18 00:18:08;;;;;;;;;;;2.90;99.90;;;;;;4993322;28;20040;-75
2022/01/18 00:20:53;;;;;;;;;;;2.90;99.90;;;;;;4996071;28;19943;-75
2022/01/18 00:23:25;;;;;;;;;;;2.90;99.90;;;;;;4972666;28;19926;-74
2022/01/18 00:25:58;;;;;;;;;;;2.90;99.90;;;;;;4952078;28;19928;-75
2022/01/18 00:28:26;;;;;;;;;;;2.90;99.90;;;;;;4952707;28;20653;-75
2022/01/18 00:31:29;;;;;;;;;;;2.90;99.90;;;;;;4969855;28;19927;-75
2022/01/18 00:37:36;;;;;;;;;;;3.00;99.90;;;;;;4969700;28;20021;-73
2022/01/18 00:39:29;;;;;;;;;;;2.90;99.90;;;;;;4984867;28;20024;-75
2022/01/18 00:41:58;;;;;;;;;;;2.90;99.90;;;;;;4994672;28;20398;-74
2022/01/18 00:44:26;;;;;;;;;;;2.90;99.90;;;;;;4998326;28;19926;-75
2022/01/18 00:46:59;;;;;;;;;;;2.90;99.90;;;;;;4955929;28;20393;-75
2022/01/18 00:49:26;;;;;;;;;;;3.00;99.90;;;;;;4971476;28;20021;-75
2022/01/18 00:52:03;;;;;;;;;;;2.90;99.90;;;;;;5001117;28;20036;-75
2022/01/18 00:54:40;;;;;;;;;;;2.90;99.90;;;;;;4986742;28;20016;-75
2022/01/18 00:57:12;;;;;;;;;;;2.90;99.90;;;;;;4978907;28;20372;-75
2022/01/18 00:59:47;;;;;;;;;;;2.90;99.90;;;;;;4966081;28;19926;-75
2022/01/18 01:02:14;;;;;;;;;;;2.90;99.90;;;;;;4973858;28;19965;-75
2022/01/18 01:04:49;;;;;;;;;;;2.90;99.90;;;;;;4961394;28;19930;-75
2022/01/18 01:07:23;;;;;;;;;;;2.90;99.90;;;;;;4956467;28;19953;-74
2022/01/18 01:09:51;;;;;;;;;;;2.90;99.90;;;;;;4939270;28;19930;-73
2022/01/18 01:12:20;;;;;;;;;;;2.90;99.90;;;;;;4955269;28;19988;-74
2022/01/18 01:14:49;;;;;;;;;;;2.90;99.90;;;;;;4986418;28;19933;-74
2022/01/18 01:41:40;;;;;;;;;;;2.90;99.90;;;;;;4989056;28;19926;-74
2022/01/18 01:43:36;;;;;;;;;;;2.90;99.90;;;;;;5005070;28;20004;-74
2022/01/18 01:45:35;;;;;;;;;;;2.90;99.90;;;;;;4988122;28;19948;-76
2022/01/18 01:48:04;;;;;;;;;;;2.90;99.90;;;;;;4972187;28;20427;-75
2022/01/18 01:51:01;;;;;;;;;;;2.90;99.90;;;;;;4983775;28;19973;-75
2022/01/18 01:53:27;;;;;;;;;;;2.80;99.90;;;;;;4992623;28;19955;-75
2022/01/18 01:55:57;;;;;;;;;;;2.80;99.90;;;;;;4992970;28;20395;-74
2022/01/18 01:58:24;;;;;;;;;;;2.80;99.90;;;;;;4954883;28;20292;-75
2022/01/18 02:01:03;;;;;;;;;;;2.80;99.90;;;;;;4971891;28;19948;-74
2022/01/18 02:03:30;;;;;;;;;;;2.70;99.90;;;;;;4975603;28;19932;-75
2022/01/18 02:06:03;;;;;;;;;;;2.80;99.90;;;;;;4983121;28;19971;-75
2022/01/18 02:08:30;;;;;;;;;;;2.70;99.90;;;;;;4975235;28;20016;-75
2022/01/18 02:11:02;;;;;;;;;;;2.70;99.90;;;;;;5009145;28;19933;-75
2022/01/18 02:13:36;;;;;;;;;;;2.70;99.90;;;;;;5009255;28;19976;-75
2022/01/18 02:24:15;;;;;;;;;;;2.70;99.90;;;;;;4978986;28;19940;-74
2022/01/18 02:26:41;;;;;;;;;;;2.80;99.90;;;;;;4999889;28;19992;-75
2022/01/18 02:29:17;;;;;;;;;;;2.80;99.90;;;;;;4977827;28;20372;-75
2022/01/18 02:31:47;;;;;;;;;;;2.80;99.90;;;;;;5010526;28;19925;-75
2022/01/18 02:34:15;;;;;;;;;;;2.80;99.90;;;;;;4975909;28;19933;-76
2022/01/18 02:36:43;;;;;;;;;;;2.80;99.90;;;;;;4983580;28;19926;-76
2022/01/18 02:39:20;;;;;;;;;;;2.80;99.90;;;;;;5048058;28;20399;-76
2022/01/18 02:41:51;;;;;;;;;;;2.70;99.90;;;;;;4965430;28;19984;-75
2022/01/18 02:44:23;;;;;;;;;;;2.60;99.90;;;;;;4983401;28;19925;-76
2022/01/18 02:46:55;;;;;;;;;;;2.50;99.90;;;;;;4993492;28;19932;-75
2022/01/18 02:49:27;;;;;;;;;;;2.50;99.90;;;;;;4953741;28;20397;-76
2022/01/18 02:51:54;;;;;;;;;;;2.50;99.90;;;;;;4968135;28;19971;-75
2022/01/18 02:54:27;;;;;;;;;;;2.50;99.90;;;;;;4992823;28;19973;-76
2022/01/18 02:56:59;;;;;;;;;;;2.40;99.90;;;;;;4992605;28;19929;-76
2022/01/18 03:05:09;;;;;;;;;;;2.50;99.90;;;;;;4953236;28;19927;-75
2022/01/18 03:07:37;;;;;;;;;;;2.50;99.90;;;;;;4962673;28;20282;-74
2022/01/18 03:10:11;;;;;;;;;;;2.50;99.90;;;;;;4938457;28;19926;-75
2022/01/18 03:12:44;;;;;;;;;;;2.50;99.90;;;;;;4967201;28;19926;-75
2022/01/18 03:15:11;;;;;;;;;;;2.50;99.90;;;;;;4965679;28;19926;-76
2022/01/18 03:17:44;;;;;;;;;;;2.50;99.90;;;;;;4974440;28;19961;-75
2022/01/18 03:20:13;;;;;;;;;;;2.50;99.90;;;;;;4988526;28;19968;-75
2022/01/18 03:22:40;;;;;;;;;;;2.50;99.90;;;;;;4972252;28;19969;-74
2022/01/18 03:28:06;;;;;;;;;;;2.50;99.90;;;;;;4991261;28;19979;-75
2022/01/18 03:30:42;;;;;;;;;;;2.50;99.90;;;;;;4994652;28;20004;-75
2022/01/18 03:33:15;;;;;;;;;;;2.50;99.90;;;;;;4982833;28;19937;-75
2022/01/18 03:35:50;;;;;;;;;;;2.50;99.90;;;;;;4991826;28;19925;-75
2022/01/18 03:38:19;;;;;;;;;;;2.50;99.90;;;;;;4975857;28;19934;-75
2022/01/18 03:40:48;;;;;;;;;;;2.60;99.90;;;;;;4983141;28;19930;-75
2022/01/18 03:43:15;;;;;;;;;;;2.60;99.90;;;;;;5004400;28;20045;-75
2022/01/18 03:45:44;;;;;;;;;;;2.60;99.90;;;;;;4953445;28;19980;-75
2022/01/18 03:48:30;;;;;;;;;;;2.60;99.90;;;;;;4975134;28;19932;-75
2022/01/18 03:50:58;;;;;;;;;;;2.60;99.90;;;;;;5008311;28;20396;-74
2022/01/18 03:53:26;;;;;;;;;;;2.60;99.90;;;;;;4990833;28;20402;-75
2022/01/18 03:55:53;;;;;;;;;;;2.60;99.90;;;;;;4953084;28;20028;-75
2022/01/18 03:58:27;;;;;;;;;;;2.60;99.90;;;;;;5010135;28;19954;-75
2022/01/18 04:01:00;;;;;;;;;;;2.60;99.90;;;;;;4952576;28;20457;-75
2022/01/18 04:03:27;;;;;;;;;;;2.60;99.90;;;;;;4979509;28;19972;-75
2022/01/18 04:05:58;;;;;;;;;;;2.60;99.90;;;;;;4972396;28;20058;-74
2022/01/18 04:08:27;;;;;;;;;;;2.60;99.90;;;;;;4991067;28;19980;-75
2022/01/18 04:11:01;;;;;;;;;;;2.60;99.90;;;;;;4953516;28;20301;-75
2022/01/18 04:13:30;;;;;;;;;;;2.60;99.90;;;;;;4956932;28;20423;-75
2022/01/18 04:15:57;;;;;;;;;;;2.60;99.90;;;;;;4944453;28;20436;-75
2022/01/18 04:18:32;;;;;;;;;;;2.60;99.90;;;;;;4967941;28;19926;-75
2022/01/18 04:29:02;;;;;;;;;;;2.60;99.90;;;;;;5006857;28;19932;-75
2022/01/18 04:31:34;;;;;;;;;;;2.60;99.90;;;;;;4991067;28;20017;-75
2022/01/18 04:34:03;;;;;;;;;;;2.60;99.90;;;;;;4960973;28;19933;-74
2022/01/18 04:36:30;;;;;;;;;;;2.60;99.90;;;;;;4984434;28;19999;-75
2022/01/18 04:39:04;;;;;;;;;;;2.60;99.90;;;;;;4955795;28;20009;-74
2022/01/18 04:41:34;;;;;;;;;;;2.60;99.90;;;;;;4987842;28;19941;-75
2022/01/18 04:49:20;;;;;;;;;;;2.50;99.90;;;;;;5007552;28;19987;-74
2022/01/18 04:51:53;;;;;;;;;;;2.50;99.90;;;;;;4979796;28;20406;-75
2022/01/18 04:54:30;;;;;;;;;;;2.40;99.90;;;;;;4989776;28;19999;-75
2022/01/18 04:59:25;;;;;;;;;;;2.40;99.90;;;;;;4984079;28;20419;-75
2022/01/18 05:01:57;;;;;;;;;;;2.40;99.90;;;;;;4952098;28;20304;-73
2022/01/18 05:04:29;;;;;;;;;;;2.40;99.90;;;;;;4980150;28;20400;-75
2022/01/18 05:07:01;;;;;;;;;;;2.30;99.90;;;;;;5021462;28;19926;-74
2022/01/18 05:09:33;;;;;;;;;;;2.30;99.90;;;;;;4990228;28;20012;-74
2022/01/18 05:12:07;;;;;;;;;;;2.30;99.90;;;;;;5008031;28;20016;-75
2022/01/18 05:14:40;;;;;;;;;;;2.30;99.90;;;;;;4990340;28;19926;-76
2022/01/18 05:17:39;;;;;;;;;;;2.30;99.90;;;;;;4985303;28;19952;-73
2022/01/18 05:22:59;;;;;;;;;;;2.40;99.90;;;;;;4988600;28;19925;-75
2022/01/18 05:25:29;;;;;;;;;;;2.40;99.90;;;;;;4984320;28;19955;-74
2022/01/18 05:28:01;;;;;;;;;;;2.30;99.90;;;;;;4994177;28;19953;-73
2022/01/18 05:30:28;;;;;;;;;;;2.30;99.90;;;;;;4980221;28;20353;-74
2022/01/18 05:32:55;;;;;;;;;;;2.20;99.90;;;;;;4979699;28;19930;-73
2022/01/18 05:35:23;;;;;;;;;;;2.20;99.90;;;;;;4980507;28;19933;-74
2022/01/18 05:37:54;;;;;;;;;;;2.20;99.90;;;;;;4974840;28;20554;-75
2022/01/18 05:40:26;;;;;;;;;;;2.20;99.90;;;;;;4995414;28;20391;-74
2022/01/18 05:42:56;;;;;;;;;;;2.30;99.90;;;;;;5062057;28;19926;-75
2022/01/18 05:45:30;;;;;;;;;;;2.30;99.90;;;;;;4981115;28;20384;-75
2022/01/18 05:48:00;;;;;;;;;;;2.30;99.90;;;;;;4975089;28;19932;-74
2022/01/18 05:50:27;;;;;;;;;;;2.30;99.90;;;;;;5010693;28;20486;-75
2022/01/18 05:52:54;;;;;;;;;;;2.30;99.90;;;;;;5036364;28;20041;-74
2022/01/18 05:55:21;;;;;;;;;;;2.30;99.90;;;;;;4999297;28;20400;-74
2022/01/18 05:57:48;;;;;;;;;;;2.40;99.90;;;;;;5046959;28;19963;-74
2022/01/18 06:00:22;;;;;;;;;;;2.40;99.90;;;;;;5031587;28;19973;-75
2022/01/18 06:08:17;;;;;;;;;;;2.40;99.90;;;;;;4954304;28;19926;-75
2022/01/18 06:10:44;;;;;;;;;;;2.40;99.90;;;;;;4974556;28;19930;-75
2022/01/18 06:13:14;;;;;;;;;;;2.30;99.90;;;;;;5056482;28;19924;-75
2022/01/18 06:15:45;;;;;;;;;;;2.30;99.90;;;;;;5006913;28;19925;-74
2022/01/18 06:18:18;;;;;;;;;;;2.30;99.90;;;;;;4992275;28;20403;-75
2022/01/18 06:20:44;;;;;;;;;;;2.40;99.90;;;;;;5018882;28;20581;-75
2022/01/18 06:23:17;;;;;;;;;;;2.40;99.90;;;;;;5009428;28;19925;-75
2022/01/18 06:25:50;;;;;;;;;;;2.40;99.90;;;;;;4992998;28;19968;-75
2022/01/18 06:28:17;;;;;;;;;;;2.40;99.90;;;;;;4992770;28;19926;-74
2022/01/18 06:30:51;;;;;;;;;;;2.30;99.90;;;;;;4995671;28;19932;-74
2022/01/18 06:33:26;;;;;;;;;;;2.30;99.90;;;;;;5004691;28;19994;-75
2022/01/18 06:35:52;;;;;;;;;;;2.30;99.90;;;;;;4985362;28;19926;-74
2022/01/18 06:38:19;;;;;;;;;;;2.30;99.90;;;;;;4999820;28;20021;-75
2022/01/18 06:40:50;;;;;;;;;;;2.30;99.90;;;;;;4973500;28;19926;-75
2022/01/18 06:43:17;;;;;;;;;;;2.30;99.90;;;;;;4989109;28;19932;-75
2022/01/18 06:45:49;;;;;;;;;;;2.20;99.90;;;;;;4959124;28;19930;-74
2022/01/18 06:48:16;;;;;;;;;;;2.20;99.90;;;;;;4975122;28;19932;-74
2022/01/18 06:50:47;;;;;;;;;;;2.20;99.90;;;;;;4987114;28;19932;-75
2022/01/18 06:53:14;;;;;;;;;;;2.20;99.90;;;;;;5004472;28;19926;-75
2022/01/18 06:55:40;;;;;;;;;;;2.20;99.90;;;;;;4972735;28;20484;-75
2022/01/18 06:58:12;;;;;;;;;;;2.20;99.90;;;;;;4989617;28;19949;-74
2022/01/18 07:00:44;;;;;;;;;;;2.20;99.90;;;;;;4998569;28;19932;-74
2022/01/18 07:03:17;;;;;;;;;;;2.20;99.90;;;;;;4977582;28;19991;-73
2022/01/18 07:05:49;;;;;;;;;;;2.20;99.90;;;;;;4976382;28;19926;-72
2022/01/18 07:08:16;;;;;;;;;;;2.10;99.90;;;;;;4969214;28;20028;-73
2022/01/18 07:10:48;;;;;;;;;;;2.10;99.90;;;;;;4954701;28;19925;-73
2022/01/18 07:13:14;;;;;;;;;;;2.10;99.90;;;;;;4993105;28;19977;-73
2022/01/18 07:15:46;;;;;;;;;;;2.10;99.90;;;;;;4981823;28;19932;-74
2022/01/18 07:18:18;;;;;;;;;;;2.10;99.90;;;;;;5025552;28;20311;-74
2022/01/18 07:20:45;;;;;;;;;;;2.10;99.90;;;;;;4990743;28;19937;-74
2022/01/18 07:23:17;;;;;;;;;;;2.10;99.90;;;;;;5043793;28;19924;-74
2022/01/18 07:25:46;;;;;;;;;;;2.10;99.90;;;;;;4986454;28;19930;-74
2022/01/18 07:28:19;;;;;;;;;;;2.20;99.90;;;;;;4996376;28;20133;-74
2022/01/18 07:30:50;;;;;;;;;;;2.20;99.90;;;;;;5002648;28;19925;-74
2022/01/18 07:33:22;;;;;;;;;;;2.20;99.90;;;;;;5039490;28;19939;-74
2022/01/18 07:35:54;;;;;;;;;;;2.20;99.90;;;;;;5021921;28;19929;-74
2022/01/18 07:38:21;;;;;;;;;;;2.20;99.90;;;;;;4955875;28;20304;-75
2022/01/18 07:40:53;;;;;;;;;;;2.30;99.90;;;;;;4957265;28;19926;-74
2022/01/18 07:43:21;;;;;;;;;;;2.30;99.90;;;;;;4971519;28;19925;-74
2022/01/18 07:45:53;;;;;;;;;;;2.30;99.90;;;;;;4973269;28;19926;-74
2022/01/18 07:48:24;;;;;;;;;;;2.30;99.90;;;;;;4990994;28;20315;-74
2022/01/18 07:50:51;;;;;;;;;;;2.30;99.90;;;;;;4991098;28;20414;-74
2022/01/18 07:53:23;;;;;;;;;;;2.30;99.90;;;;;;4991677;28;19925;-74
2022/01/18 07:55:50;;;;;;;;;;;2.30;99.90;;;;;;4975805;28;19925;-74
2022/01/18 07:58:21;;;;;;;;;;;2.40;99.90;;;;;;4992766;28;19926;-74
2022/01/18 08:00:53;;;;;;;;;;;2.40;99.90;;;;;;4995244;28;19936;-75
2022/01/18 08:03:20;;;;;;;;;;;2.40;99.90;;;;;;5039162;28;19970;-72
2022/01/18 08:05:48;;;;;;;;;;;2.40;99.90;;;;;;4986327;28;19932;-75
2022/01/18 08:08:15;;;;;;;;;;;2.50;99.90;;;;;;4988187;28;20028;-75
2022/01/18 08:10:47;;;;;;;;;;;2.50;99.90;;;;;;4988065;28;19948;-75
2022/01/18 08:13:13;;;;;;;;;;;2.50;99.90;;;;;;4987508;28;20004;-74
2022/01/18 08:15:56;;;;;;;;;;;2.50;99.90;;;;;;4956627;28;20002;-74
2022/01/18 08:18:23;;;;;;;;;;;2.60;99.90;;;;;;4971788;28;19976;-74
2022/01/18 08:20:50;;;;;;;;;;;2.60;99.90;;;;;;5004158;28;20012;-75
2022/01/18 08:23:21;;;;;;;;;;;2.60;99.90;;;;;;4969447;28;19930;-74
2022/01/18 08:25:53;;;;;;;;;;;2.70;99.90;;;;;;4972101;28;20319;-73
2022/01/18 08:28:24;;;;;;;;;;;2.70;99.90;;;;;;5055635;28;20009;-73
2022/01/18 08:30:51;;;;;;;;;;;2.60;99.90;;;;;;5047049;28;20393;-74
2022/01/18 08:33:19;;;;;;;;;;;2.70;99.90;;;;;;5054704;28;19930;-74
2022/01/18 08:35:45;;;;;;;;;;;2.60;99.90;;;;;;4985598;28;19929;-74
2022/01/18 08:38:12;;;;;;;;;;;2.70;99.90;;;;;;5019690;28;19932;-74
2022/01/18 08:40:39;;;;;;;;;;;2.60;99.90;;;;;;5072736;28;20023;-74
2022/01/18 08:43:10;;;;;;;;;;;2.60;99.90;;;;;;5067657;28;19931;-75
2022/01/18 08:45:42;;;;;;;;;;;2.70;99.90;;;;;;4975422;28;19925;-73
2022/01/18 08:48:08;;;;;;;;;;;2.70;99.90;;;;;;4990846;28;19994;-74
2022/01/18 08:50:35;;;;;;;;;;;2.70;99.90;;;;;;4990692;28;19936;-75
2022/01/18 08:53:02;;;;;;;;;;;2.80;99.90;;;;;;4970251;28;20308;-75
2022/01/18 08:55:29;;;;;;;;;;;2.80;99.90;;;;;;4969140;28;19936;-74
2022/01/18 08:58:02;;;;;;;;;;;2.80;99.90;;;;;;4994850;28;20012;-74
2022/01/18 09:00:29;;;;;;;;;;;2.90;99.90;;;;;;5076429;28;20633;-75
2022/01/18 09:02:55;;;;;;;;;;;2.90;99.90;;;;;;5002700;28;19930;-74
2022/01/18 09:05:27;;;;;;;;;;;3.00;99.90;;;;;;5059090;28;19925;-74
2022/01/18 09:07:56;;;;;;;;;;;3.10;99.90;;;;;;4988623;28;19926;-74
2022/01/18 09:10:27;;;;;;;;;;;3.10;99.90;;;;;;5001669;28;20313;-74
2022/01/18 09:12:54;;;;;;;;;;;3.20;99.90;;;;;;4977729;28;19930;-74
2022/01/18 09:15:21;;;;;;;;;;;3.20;99.90;;;;;;4989813;28;20092;-74
2022/01/18 09:17:47;;;;;;;;;;;3.20;99.90;;;;;;4998941;28;19926;-75
2022/01/18 09:20:19;;;;;;;;;;;3.30;99.90;;;;;;4989712;28;19933;-75
2022/01/18 09:22:48;;;;;;;;;;;3.30;99.90;;;;;;4988133;28;20380;-74
2022/01/18 09:25:21;;;;;;;;;;;3.40;99.90;;;;;;5005368;28;19933;-75
2022/01/18 09:27:53;;;;;;;;;;;3.60;99.90;;;;;;4986745;28;19926;-74
2022/01/18 09:30:26;;;;;;;;;;;3.70;99.90;;;;;;5005718;28;19956;-75
2022/01/18 09:32:54;;;;;;;;;;;3.70;99.90;;;;;;5020026;28;20494;-74
2022/01/18 09:35:26;;;;;;;;;;;3.70;99.90;;;;;;4969097;28;19934;-74
2022/01/18 09:37:53;;;;;;;;;;;3.60;99.90;;;;;;4981070;28;19926;-73
2022/01/18 09:40:25;;;;;;;;;;;3.60;99.90;;;;;;4991317;28;19930;-75
2022/01/18 09:42:56;;;;;;;;;;;3.60;99.90;;;;;;5005670;28;19932;-74
2022/01/18 09:45:23;;;;;;;;;;;3.60;99.90;;;;;;4973606;28;19926;-75
2022/01/18 09:47:56;;;;;;;;;;;3.60;99.90;;;;;;4973583;28;20299;-75
2022/01/18 09:50:29;;;;;;;;;;;3.60;99.90;;;;;;4957722;28;19926;-75
2022/01/18 09:53:01;;;;;;;;;;;3.70;99.90;;;;;;4973170;28;19926;-74
2022/01/18 09:55:29;;;;;;;;;;;3.70;99.90;;;;;;4989887;28;19932;-75
2022/01/18 09:57:56;;;;;;;;;;;3.70;99.90;;;;;;4988596;28;20523;-75
2022/01/18 10:00:25;;;;;;;;;;;3.70;99.90;;;;;;4976367;28;19932;-75
2022/01/18 10:02:52;;;;;;;;;;;3.80;99.90;;;;;;5045824;28;20300;-74
2022/01/18 10:05:23;;;;;;;;;;;3.80;99.90;;;;;;5053293;28;20007;-75
2022/01/18 10:08:04;;;;;;;;;;;3.80;99.90;;;;;;5013354;28;20285;-75
2022/01/18 10:10:35;;;;;;;;;;;3.90;99.90;;;;;;5002994;28;20033;-73
2022/01/18 10:13:02;;;;;;;;;;;4.00;99.90;;;;;;5044978;28;19925;-74
2022/01/18 10:15:29;;;;;;;;;;;4.10;99.90;;;;;;5058497;28;19964;-74
2022/01/18 10:18:06;;;;;;;;;;;4.10;99.90;;;;;;5044419;28;19930;-75
2022/01/18 10:20:48;;;;;;;;;;;4.20;99.90;;;;;;5014185;28;19924;-73
2022/01/18 10:23:21;;;;;;;;;;;4.30;99.90;;;;;;5058772;28;19931;-75
2022/01/18 10:25:47;;;;;;;;;;;4.30;99.90;;;;;;5075575;28;19924;-75
2022/01/18 10:28:30;;;;;;;;;;;4.30;99.90;;;;;;5074765;28;19924;-73
2022/01/18 10:31:21;;;;;;;;;;;4.40;99.90;;;;;;5007352;28;19963;-75
2022/01/18 10:37:02;;;;;;;;;;;4.40;99.90;;;;;;4999816;28;19948;-75
2022/01/18 10:39:31;;;;;;;;;;;4.50;99.90;;;;;;4987138;28;19925;-75
2022/01/18 10:41:59;;;;;;;;;;;4.60;99.90;;;;;;4982363;28;19926;-75
2022/01/18 10:44:25;;;;;;;;;;;4.60;99.90;;;;;;4989515;28;19932;-74
2022/01/18 10:46:58;;;;;;;;;;;4.60;99.90;;;;;;4979984;28;19925;-74
2022/01/18 10:49:27;;;;;;;;;;;4.60;99.90;;;;;;4994554;28;19933;-75
2022/01/18 10:52:02;;;;;;;;;;;4.70;99.90;;;;;;5009456;28;20287;-75
2022/01/18 10:54:40;;;;;;;;;;;4.70;99.90;;;;;;4974989;28;19932;-73
2022/01/18 10:57:07;;;;;;;;;;;4.80;99.90;;;;;;4990895;28;19931;-75
2022/01/18 10:59:37;;;;;;;;;;;4.80;99.90;;;;;;4978272;28;20404;-74
2022/01/18 11:02:14;;;;;;;;;;;4.80;99.90;;;;;;5032297;28;19924;-74
2022/01/18 11:04:51;;;;;;;;;;;4.80;99.90;;;;;;5005714;28;20036;-75
2022/01/18 11:07:19;;;;;;;;;;;4.80;99.90;;;;;;4992558;28;20277;-74
2022/01/18 11:09:51;;;;;;;;;;;4.80;99.90;;;;;;4992045;28;19926;-74
2022/01/18 11:12:27;;;;;;;;;;;4.80;99.90;;;;;;4991755;28;19936;-75
2022/01/18 11:15:07;;;;;;;;;;;4.80;99.90;;;;;;4976746;28;19948;-75
2022/01/18 11:17:39;;;;;;;;;;;4.80;99.90;;;;;;5009581;28;19926;-75
2022/01/18 11:20:13;;;;;;;;;;;4.80;99.90;;;;;;4976443;28;20376;-75
2022/01/18 11:22:39;;;;;;;;;;;4.90;99.90;;;;;;5009200;28;20028;-75
2022/01/18 11:25:06;;;;;;;;;;;4.90;99.90;;;;;;4990627;28;19935;-75
2022/01/18 11:27:35;;;;;;;;;;;4.90;99.90;;;;;;4992035;28;20805;-75
2022/01/18 11:30:08;;;;;;;;;;;4.90;99.90;;;;;;4993830;28;20408;-73
2022/01/18 11:32:35;;;;;;;;;;;4.90;99.90;;;;;;5051337;28;20025;-73
2022/01/18 11:35:07;;;;;;;;;;;5.00;99.90;;;;;;4992997;28;20475;-75
2022/01/18 11:37:56;;;;;;;;;;;5.00;99.90;;;;;;5033549;28;19926;-75
2022/01/18 11:40:41;;;;;;;;;;;5.00;99.90;;;;;;5041182;28;19932;-75
2022/01/18 11:43:08;;;;;;;;;;;5.00;99.90;;;;;;4991491;28;20344;-75
2022/01/18 11:45:43;;;;;;;;;;;5.00;99.90;;;;;;4992669;28;19992;-74
2022/01/18 11:48:12;;;;;;;;;;;5.00;99.90;;;;;;4991651;28;19926;-75
2022/01/18 11:50:42;;;;;;;;;;;5.00;99.90;;;;;;4991529;28;19932;-74
2022/01/18 11:53:23;;;;;;;;;;;5.10;99.90;;;;;;5008750;28;19932;-73
2022/01/18 11:55:56;;;;;;;;;;;5.10;99.90;;;;;;4957943;28;19926;-75
2022/01/18 11:58:27;;;;;;;;;;;5.10;99.90;;;;;;4968802;28;19926;-75
2022/01/18 12:01:01;;;;;;;;;;;5.20;99.90;;;;;;4955929;28;19945;-75
2022/01/18 12:03:28;;;;;;;;;;;5.20;99.90;;;;;;4988582;28;19924;-75
2022/01/18 12:06:01;;;;;;;;;;;5.30;99.90;;;;;;4958060;28;20464;-74
2022/01/18 12:08:29;;;;;;;;;;;5.30;99.90;;;;;;4987913;28;19926;-75
2022/01/18 12:11:02;;;;;;;;;;;5.30;99.90;;;;;;4972263;28;20007;-74
2022/01/18 12:13:35;;;;;;;;;;;5.30;99.90;;;;;;4974535;28;20311;-75
2022/01/18 12:16:17;;;;;;;;;;;5.30;99.90;;;;;;4975483;28;19935;-73
2022/01/18 12:18:54;;;;;;;;;;;5.30;99.90;;;;;;4971493;28;19926;-75
2022/01/18 12:21:28;;;;;;;;;;;5.30;99.90;;;;;;4983155;28;19925;-74
2022/01/18 12:24:16;;;;;;;;;;;5.30;99.90;;;;;;4972119;28;19926;-72
2022/01/18 12:26:47;;;;;;;;;;;5.20;99.90;;;;;;4964487;28;19941;-74
2022/01/18 12:29:23;;;;;;;;;;;5.20;99.90;;;;;;4988238;28;19926;-75
2022/01/18 12:34:32;;;;;;;;;;;5.20;99.90;;;;;;4995769;28;19961;-75
2022/01/18 12:37:06;;;;;;;;;;;5.40;99.90;;;;;;4994204;28;19931;-74
2022/01/18 12:40:05;;;;;;;;;;;5.50;99.90;;;;;;4983482;28;19926;-73
2022/01/18 12:45:08;;;;;;;;;;;5.70;99.90;;;;;;5000996;28;20418;-73
2022/01/18 12:47:44;;;;;;;;;;;5.70;99.90;;;;;;4998506;28;19929;-74
2022/01/18 12:50:18;;;;;;;;;;;5.70;99.90;;;;;;4975654;28;19930;-74
2022/01/18 12:52:45;;;;;;;;;;;5.80;99.90;;;;;;4991301;28;20487;-74
2022/01/18 12:55:28;;;;;;;;;;;5.80;99.90;;;;;;4996354;28;19930;-73
2022/01/18 12:58:08;;;;;;;;;;;5.70;99.90;;;;;;4986726;28;20381;-74
2022/01/18 13:00:36;;;;;;;;;;;5.80;99.90;;;;;;5008565;28;19925;-75
2022/01/18 13:03:03;;;;;;;;;;;5.80;99.90;;;;;;4983281;28;19932;-75
2022/01/18 13:05:34;;;;;;;;;;;5.80;99.90;;;;;;4963552;28;19930;-75
2022/01/18 13:08:01;;;;;;;;;;;5.80;99.90;;;;;;4993642;28;20020;-74
2022/01/18 13:10:33;;;;;;;;;;;5.80;99.90;;;;;;5054507;28;19941;-73
2022/01/18 13:13:05;;;;;;;;;;;5.70;99.90;;;;;;4970067;28;19926;-74
2022/01/18 13:15:47;;;;;;;;;;;5.60;99.90;;;;;;4974302;28;20324;-73
2022/01/18 13:26:30;;;;;;;;;;;5.50;99.90;;;;;;5011682;28;19933;-74
2022/01/18 13:29:08;;;;;;;;;;;5.40;99.90;;;;;;5023116;28;19959;-74
2022/01/18 13:31:34;;;;;;;;;;;5.40;99.90;;;;;;4992246;28;19932;-74
2022/01/18 13:34:02;;;;;;;;;;;5.40;99.90;;;;;;4978013;28;20020;-74
2022/01/18 13:36:33;;;;;;;;;;;5.40;99.90;;;;;;5012041;28;19955;-75
2022/01/18 13:39:26;;;;;;;;;;;5.30;99.90;;;;;;5044302;28;19934;-75
2022/01/18 13:41:59;;;;;;;;;;;5.30;99.90;;;;;;4958242;28;19936;-75
2022/01/18 13:44:34;;;;;;;;;;;5.30;99.90;;;;;;4953640;28;19945;-75
2022/01/18 13:47:13;;;;;;;;;;;5.30;99.90;;;;;;4954255;28;20017;-75
2022/01/18 13:49:45;;;;;;;;;;;5.30;99.90;;;;;;4965371;28;19932;-75
2022/01/18 13:52:13;;;;;;;;;;;5.20;99.90;;;;;;4973493;28;19925;-74
2022/01/18 13:54:49;;;;;;;;;;;5.20;99.90;;;;;;4958030;28;19926;-75
2022/01/18 13:57:21;;;;;;;;;;;5.20;99.90;;;;;;4973617;28;20005;-75
2022/01/18 13:59:53;;;;;;;;;;;5.20;99.90;;;;;;4970361;28;19933;-75
2022/01/18 14:02:21;;;;;;;;;;;5.20;99.90;;;;;;4970636;28;19926;-74
2022/01/18 14:05:05;;;;;;;;;;;5.10;99.90;;;;;;4969976;28;19984;-73
2022/01/18 14:07:39;;;;;;;;;;;5.10;99.90;;;;;;4985605;28;20407;-75
2022/01/18 14:10:05;;;;;;;;;;;5.10;99.90;;;;;;4950025;28;20373;-75
2022/01/18 14:12:39;;;;;;;;;;;5.00;99.90;;;;;;4992839;28;20020;-75
2022/01/18 14:15:11;;;;;;;;;;;5.00;99.90;;;;;;4977197;28;19925;-74
2022/01/18 14:17:39;;;;;;;;;;;5.00;99.90;;;;;;4980763;28;19930;-75
2022/01/18 14:20:15;;;;;;;;;;;5.00;99.90;;;;;;5037022;28;19957;-73
2022/01/18 14:22:43;;;;;;;;;;;5.00;99.90;;;;;;4985086;28;19926;-74
2022/01/18 14:25:15;;;;;;;;;;;4.90;99.90;;;;;;4969860;28;19926;-75
2022/01/18 14:27:43;;;;;;;;;;;4.90;99.90;;;;;;4967773;28;20016;-74
2022/01/18 14:30:11;;;;;;;;;;;4.80;99.90;;;;;;4985386;28;19926;-74
2022/01/18 14:32:39;;;;;;;;;;;4.80;99.90;;;;;;4973174;28;20034;-73
2022/01/18 14:35:16;;;;;;;;;;;4.80;99.90;;;;;;4971424;28;19926;-74
2022/01/18 14:37:43;;;;;;;;;;;4.80;99.90;;;;;;4992405;28;19929;-74
2022/01/18 14:40:18;;;;;;;;;;;4.70;99.90;;;;;;4956634;28;19926;-74
2022/01/18 14:42:51;;;;;;;;;;;4.70;99.90;;;;;;5023624;28;19929;-74
2022/01/18 14:45:38;;;;;;;;;;;4.70;99.90;;;;;;5044625;28;20672;-74
2022/01/18 14:48:10;;;;;;;;;;;4.70;99.90;;;;;;5015590;28;19962;-74
2022/01/18 14:50:39;;;;;;;;;;;4.70;99.90;;;;;;5017777;28;19969;-74
2022/01/18 14:53:09;;;;;;;;;;;4.70;99.90;;;;;;5011445;28;19926;-74
2022/01/18 14:55:41;;;;;;;;;;;4.70;99.90;;;;;;4993215;28;19982;-75
2022/01/18 14:58:08;;;;;;;;;;;4.60;99.90;;;;;;5026120;28;20277;-75
2022/01/18 15:00:42;;;;;;;;;;;4.60;99.90;;;;;;4989733;28;19926;-74
2022/01/18 15:03:16;;;;;;;;;;;4.60;99.90;;;;;;4972997;28;19930;-74
2022/01/18 15:05:46;;;;;;;;;;;4.60;99.90;;;;;;4984294;28;20656;-74
2022/01/18 15:08:13;;;;;;;;;;;4.60;99.90;;;;;;5005263;28;19925;-74
2022/01/18 15:10:43;;;;;;;;;;;4.60;99.90;;;;;;4982127;28;20354;-74
2022/01/18 15:13:09;;;;;;;;;;;4.60;99.90;;;;;;4978439;28;20276;-74
2022/01/18 15:15:41;;;;;;;;;;;4.60;99.90;;;;;;4968761;28;19979;-75
2022/01/18 15:18:13;;;;;;;;;;;4.50;99.90;;;;;;5044174;28;19933;-74
2022/01/18 15:20:41;;;;;;;;;;;4.50;99.90;;;;;;5020139;28;19995;-74
2022/01/18 15:23:08;;;;;;;;;;;4.50;99.90;;;;;;5020946;28;20003;-74
2022/01/18 15:25:39;;;;;;;;;;;4.50;99.90;;;;;;5089585;28;19924;-74
2022/01/18 15:28:06;;;;;;;;;;;4.50;99.90;;;;;;5091496;28;19928;-75
2022/01/18 15:30:39;;;;;;;;;;;4.50;99.90;;;;;;4986453;28;20299;-74
2022/01/18 15:33:11;;;;;;;;;;;4.40;99.90;;;;;;4967435;28;20361;-74
2022/01/18 15:35:37;;;;;;;;;;;4.40;99.90;;;;;;5036024;28;19926;-74
2022/01/18 15:38:04;;;;;;;;;;;4.40;99.90;;;;;;5052437;28;20028;-75
2022/01/18 15:40:31;;;;;;;;;;;4.30;99.90;;;;;;4983145;28;19925;-74
2022/01/18 15:43:03;;;;;;;;;;;4.20;99.90;;;;;;4991513;28;19925;-74
2022/01/18 15:45:36;;;;;;;;;;;4.20;99.90;;;;;;5008106;28;19925;-74
2022/01/18 15:48:04;;;;;;;;;;;4.10;99.90;;;;;;4990835;28;19929;-74
2022/01/18 15:50:37;;;;;;;;;;;4.10;99.90;;;;;;5007802;28;19932;-74
2022/01/18 15:53:05;;;;;;;;;;;4.10;99.90;;;;;;4999428;28;19962;-73
2022/01/18 15:55:32;;;;;;;;;;;4.10;99.90;;;;;;4991307;28;19972;-73
2022/01/18 15:58:05;;;;;;;;;;;4.10;99.90;;;;;;4991271;28;19957;-74
2022/01/18 16:00:41;;;;;;;;;;;4.00;99.90;;;;;;4971968;28;19940;-74
2022/01/18 16:03:08;;;;;;;;;;;4.00;99.90;;;;;;4967637;28;20029;-74
2022/01/18 16:05:39;;;;;;;;;;;4.00;99.90;;;;;;4951260;28;20021;-74
2022/01/18 16:08:06;;;;;;;;;;;4.00;99.90;;;;;;5015443;28;19931;-74
2022/01/18 16:10:39;;;;;;;;;;;4.00;99.90;;;;;;4987864;28;20396;-74
2022/01/18 16:13:06;;;;;;;;;;;4.00;99.90;;;;;;4970966;28;20416;-73
2022/01/18 16:15:32;;;;;;;;;;;4.00;99.90;;;;;;5014446;28;19930;-74
2022/01/18 16:18:06;;;;;;;;;;;4.00;99.90;;;;;;5051608;28;19926;-74
2022/01/18 16:20:33;;;;;;;;;;;4.00;99.90;;;;;;4956689;28;19961;-74
2022/01/18 16:23:04;;;;;;;;;;;3.90;99.90;;;;;;4975072;28;19957;-73